sensor_id;sensor_type;location;lat;lon;timestamp;P1;durP1;ratioP1;P2;durP2;ratioP2
9388;SDS011;4734;52.778;6.798;2022-11-24T00:00:37;14.70;;;5.67;;
9388;SDS011;4734;52.778;6.798;2022-11-24T00:03:23;13.93;;;5.33;;
9388;SDS011;4734;52.778;6.798;2022-11-24T00:06:10;9.80;;;5.00;;
9388;SDS011;4734;52.778;6.798;2022-11-24T00:08:59;11.97;;;5.70;;
9388;SDS011;4734;52.778;6.798;2022-11-24T00:11:46;10.17;;;5.00;;
9388;SDS011;4734;52.778;6.798;2022-11-24T00:14:33;8.10;;;4.37;;
9388;SDS011;4734;52.778;6.798;2022-11-24T00:17:19;12.17;;;5.07;;
9388;SDS011;4734;52.778;6.798;2022-11-24T00:20:06;10.30;;;5.33;;
9388;SDS011;4734;52.778;6.798;2022-11-24T00:22:52;10.67;;;5.20;;
9388;SDS011;4734;52.778;6.798;2022-11-24T00:25:39;11.23;;;5.07;;
9388;SDS011;4734;52.778;6.798;2022-11-24T00:28:25;14.03;;;5.00;;
9388;SDS011;4734;52.778;6.798;2022-11-24T00:31:16;16.07;;;5.43;;
9388;SDS011;4734;52.778;6.798;2022-11-24T00:34:03;10.10;;;4.30;;
9388;SDS011;4734;52.778;6.798;2022-11-24T00:36:50;13.37;;;5.20;;
9388;SDS011;4734;52.778;6.798;2022-11-24T00:39:36;12.80;;;4.83;;
9388;SDS011;4734;52.778;6.798;2022-11-24T00:42:22;14.30;;;5.13;;
9388;SDS011;4734;52.778;6.798;2022-11-24T00:45:08;13.57;;;4.67;;
9388;SDS011;4734;52.778;6.798;2022-11-24T00:47:56;13.00;;;4.50;;
9388;SDS011;4734;52.778;6.798;2022-11-24T00:50:42;9.60;;;4.37;;
9388;SDS011;4734;52.778;6.798;2022-11-24T00:53:28;11.30;;;5.13;;
9388;SDS011;4734;52.778;6.798;2022-11-24T00:56:14;14.30;;;5.10;;
9388;SDS011;4734;52.778;6.798;2022-11-24T00:59:03;17.00;;;5.50;;
9388;SDS011;4734;52.778;6.798;2022-11-24T01:01:49;13.20;;;4.83;;
9388;SDS011;4734;52.778;6.798;2022-11-24T01:04:45;15.40;;;5.23;;
9388;SDS011;4734;52.778;6.798;2022-11-24T01:07:34;17.20;;;5.17;;
9388;SDS011;4734;52.778;6.798;2022-11-24T01:10:20;12.10;;;4.43;;
9388;SDS011;4734;52.778;6.798;2022-11-24T01:13:05;17.47;;;4.80;;
9388;SDS011;4734;52.778;6.798;2022-11-24T01:15:51;13.53;;;4.17;;
9388;SDS011;4734;52.778;6.798;2022-11-24T01:18:37;12.23;;;4.80;;
9388;SDS011;4734;52.778;6.798;2022-11-24T01:21:25;12.67;;;5.40;;
9388;SDS011;4734;52.778;6.798;2022-11-24T01:24:11;17.17;;;5.03;;
9388;SDS011;4734;52.778;6.798;2022-11-24T01:26:57;16.87;;;5.00;;
9388;SDS011;4734;52.778;6.798;2022-11-24T01:29:43;15.40;;;4.63;;
9388;SDS011;4734;52.778;6.798;2022-11-24T01:32:29;16.37;;;4.73;;
9388;SDS011;4734;52.778;6.798;2022-11-24T01:35:15;12.80;;;4.57;;
9388;SDS011;4734;52.778;6.798;2022-11-24T01:38:03;12.73;;;4.17;;
9388;SDS011;4734;52.778;6.798;2022-11-24T01:40:49;17.70;;;4.80;;
9388;SDS011;4734;52.778;6.798;2022-11-24T01:43:44;13.13;;;4.40;;
9388;SDS011;4734;52.778;6.798;2022-11-24T01:46:31;13.40;;;4.03;;
9388;SDS011;4734;52.778;6.798;2022-11-24T01:49:23;16.50;;;4.67;;
9388;SDS011;4734;52.778;6.798;2022-11-24T01:52:16;16.47;;;4.53;;
9388;SDS011;4734;52.778;6.798;2022-11-24T01:55:10;13.83;;;4.37;;
9388;SDS011;4734;52.778;6.798;2022-11-24T01:58:00;14.67;;;4.43;;
9388;SDS011;4734;52.778;6.798;2022-11-24T02:00:49;15.80;;;4.33;;
9388;SDS011;4734;52.778;6.798;2022-11-24T02:03:36;16.73;;;4.90;;
9388;SDS011;4734;52.778;6.798;2022-11-24T02:06:25;11.90;;;3.97;;
9388;SDS011;4734;52.778;6.798;2022-11-24T02:09:15;14.60;;;4.47;;
9388;SDS011;4734;52.778;6.798;2022-11-24T02:12:07;15.50;;;4.90;;
9388;SDS011;4734;52.778;6.798;2022-11-24T02:14:54;14.23;;;4.43;;
9388;SDS011;4734;52.778;6.798;2022-11-24T02:17:40;14.30;;;5.20;;
9388;SDS011;4734;52.778;6.798;2022-11-24T02:20:26;17.47;;;4.30;;
9388;SDS011;4734;52.778;6.798;2022-11-24T02:23:14;12.83;;;4.43;;
9388;SDS011;4734;52.778;6.798;2022-11-24T02:26:07;16.90;;;4.57;;
9388;SDS011;4734;52.778;6.798;2022-11-24T02:28:58;19.80;;;5.00;;
9388;SDS011;4734;52.778;6.798;2022-11-24T02:31:44;16.97;;;4.53;;
9388;SDS011;4734;52.778;6.798;2022-11-24T02:34:33;14.03;;;4.13;;
9388;SDS011;4734;52.778;6.798;2022-11-24T02:37:19;17.33;;;4.80;;
9388;SDS011;4734;52.778;6.798;2022-11-24T02:40:05;15.63;;;4.57;;
9388;SDS011;4734;52.778;6.798;2022-11-24T02:42:52;15.10;;;3.57;;
9388;SDS011;4734;52.778;6.798;2022-11-24T02:45:45;12.03;;;4.17;;
9388;SDS011;4734;52.778;6.798;2022-11-24T02:48:31;18.80;;;4.10;;
9388;SDS011;4734;52.778;6.798;2022-11-24T02:51:17;15.73;;;4.13;;
9388;SDS011;4734;52.778;6.798;2022-11-24T02:54:04;19.77;;;4.43;;
9388;SDS011;4734;52.778;6.798;2022-11-24T02:56:50;10.50;;;3.73;;
9388;SDS011;4734;52.778;6.798;2022-11-24T02:59:36;11.67;;;3.80;;
9388;SDS011;4734;52.778;6.798;2022-11-24T03:02:23;17.87;;;4.13;;
9388;SDS011;4734;52.778;6.798;2022-11-24T03:05:09;9.90;;;3.40;;
9388;SDS011;4734;52.778;6.798;2022-11-24T03:07:56;15.57;;;3.70;;
9388;SDS011;4734;52.778;6.798;2022-11-24T03:10:42;20.57;;;4.57;;
9388;SDS011;4734;52.778;6.798;2022-11-24T03:13:28;15.40;;;3.97;;
9388;SDS011;4734;52.778;6.798;2022-11-24T03:16:14;21.07;;;4.63;;
9388;SDS011;4734;52.778;6.798;2022-11-24T03:19:01;13.37;;;4.07;;
9388;SDS011;4734;52.778;6.798;2022-11-24T03:21:49;14.47;;;4.10;;
9388;SDS011;4734;52.778;6.798;2022-11-24T03:24:35;14.77;;;4.57;;
9388;SDS011;4734;52.778;6.798;2022-11-24T03:27:21;13.83;;;3.77;;
9388;SDS011;4734;52.778;6.798;2022-11-24T03:30:07;17.93;;;4.43;;
9388;SDS011;4734;52.778;6.798;2022-11-24T03:32:54;15.43;;;3.87;;
9388;SDS011;4734;52.778;6.798;2022-11-24T03:35:41;15.50;;;4.10;;
9388;SDS011;4734;52.778;6.798;2022-11-24T03:38:27;19.63;;;4.20;;
9388;SDS011;4734;52.778;6.798;2022-11-24T03:41:13;17.37;;;3.60;;
9388;SDS011;4734;52.778;6.798;2022-11-24T03:43:58;15.43;;;4.10;;
9388;SDS011;4734;52.778;6.798;2022-11-24T03:46:44;14.70;;;3.90;;
9388;SDS011;4734;52.778;6.798;2022-11-24T03:49:30;10.73;;;3.97;;
9388;SDS011;4734;52.778;6.798;2022-11-24T03:52:18;11.73;;;3.20;;
9388;SDS011;4734;52.778;6.798;2022-11-24T03:55:04;11.30;;;3.80;;
9388;SDS011;4734;52.778;6.798;2022-11-24T03:57:50;12.97;;;3.53;;
9388;SDS011;4734;52.778;6.798;2022-11-24T04:00:36;10.40;;;3.53;;
9388;SDS011;4734;52.778;6.798;2022-11-24T04:03:22;14.23;;;3.60;;
9388;SDS011;4734;52.778;6.798;2022-11-24T04:06:08;12.50;;;3.70;;
9388;SDS011;4734;52.778;6.798;2022-11-24T04:08:56;8.33;;;3.43;;
9388;SDS011;4734;52.778;6.798;2022-11-24T04:11:43;14.57;;;4.23;;
9388;SDS011;4734;52.778;6.798;2022-11-24T04:14:47;14.80;;;4.00;;
9388;SDS011;4734;52.778;6.798;2022-11-24T04:17:32;14.87;;;3.60;;
9388;SDS011;4734;52.778;6.798;2022-11-24T04:20:19;13.83;;;3.80;;
9388;SDS011;4734;52.778;6.798;2022-11-24T04:23:05;12.07;;;3.37;;
9388;SDS011;4734;52.778;6.798;2022-11-24T04:25:52;15.93;;;3.60;;
9388;SDS011;4734;52.778;6.798;2022-11-24T04:28:38;11.00;;;3.43;;
9388;SDS011;4734;52.778;6.798;2022-11-24T04:31:24;12.23;;;3.10;;
9388;SDS011;4734;52.778;6.798;2022-11-24T04:34:10;11.87;;;3.70;;
9388;SDS011;4734;52.778;6.798;2022-11-24T04:36:55;11.90;;;3.37;;
9388;SDS011;4734;52.778;6.798;2022-11-24T04:39:41;21.60;;;4.60;;
9388;SDS011;4734;52.778;6.798;2022-11-24T04:42:29;16.07;;;3.50;;
9388;SDS011;4734;52.778;6.798;2022-11-24T04:45:15;19.47;;;4.10;;
9388;SDS011;4734;52.778;6.798;2022-11-24T04:48:00;8.47;;;2.90;;
9388;SDS011;4734;52.778;6.798;2022-11-24T04:50:46;17.90;;;3.73;;
9388;SDS011;4734;52.778;6.798;2022-11-24T04:53:32;7.93;;;3.00;;
9388;SDS011;4734;52.778;6.798;2022-11-24T04:56:18;12.20;;;3.70;;
9388;SDS011;4734;52.778;6.798;2022-11-24T04:59:05;13.70;;;3.63;;
9388;SDS011;4734;52.778;6.798;2022-11-24T05:01:51;14.80;;;3.50;;
9388;SDS011;4734;52.778;6.798;2022-11-24T05:04:37;11.13;;;3.27;;
9388;SDS011;4734;52.778;6.798;2022-11-24T05:07:23;13.77;;;4.00;;
9388;SDS011;4734;52.778;6.798;2022-11-24T05:10:09;13.27;;;3.63;;
9388;SDS011;4734;52.778;6.798;2022-11-24T05:13:12;14.60;;;3.73;;
9388;SDS011;4734;52.778;6.798;2022-11-24T05:15:59;10.13;;;3.40;;
9388;SDS011;4734;52.778;6.798;2022-11-24T05:18:45;16.53;;;3.70;;
9388;SDS011;4734;52.778;6.798;2022-11-24T05:21:31;12.60;;;3.43;;
9388;SDS011;4734;52.778;6.798;2022-11-24T05:24:17;14.97;;;4.43;;
9388;SDS011;4734;52.778;6.798;2022-11-24T05:27:03;14.50;;;3.73;;
9388;SDS011;4734;52.778;6.798;2022-11-24T05:29:48;17.07;;;3.40;;
9388;SDS011;4734;52.778;6.798;2022-11-24T05:32:35;10.93;;;3.63;;
9388;SDS011;4734;52.778;6.798;2022-11-24T05:35:21;12.67;;;3.60;;
9388;SDS011;4734;52.778;6.798;2022-11-24T05:38:07;9.77;;;2.93;;
9388;SDS011;4734;52.778;6.798;2022-11-24T05:40:53;12.80;;;2.93;;
9388;SDS011;4734;52.778;6.798;2022-11-24T05:43:39;12.63;;;3.57;;
9388;SDS011;4734;52.778;6.798;2022-11-24T05:46:25;18.07;;;3.53;;
9388;SDS011;4734;52.778;6.798;2022-11-24T05:49:12;11.73;;;3.20;;
9388;SDS011;4734;52.778;6.798;2022-11-24T05:51:57;8.27;;;2.63;;
9388;SDS011;4734;52.778;6.798;2022-11-24T05:54:43;9.87;;;3.70;;
9388;SDS011;4734;52.778;6.798;2022-11-24T05:57:30;12.60;;;3.20;;
9388;SDS011;4734;52.778;6.798;2022-11-24T06:00:16;8.87;;;3.60;;
9388;SDS011;4734;52.778;6.798;2022-11-24T06:03:02;12.93;;;3.50;;
9388;SDS011;4734;52.778;6.798;2022-11-24T06:05:50;14.03;;;3.23;;
9388;SDS011;4734;52.778;6.798;2022-11-24T06:08:36;12.07;;;3.00;;
9388;SDS011;4734;52.778;6.798;2022-11-24T06:11:21;11.97;;;3.17;;
9388;SDS011;4734;52.778;6.798;2022-11-24T06:14:08;11.37;;;3.23;;
9388;SDS011;4734;52.778;6.798;2022-11-24T06:16:54;12.47;;;3.07;;
9388;SDS011;4734;52.778;6.798;2022-11-24T06:19:40;10.50;;;2.97;;
9388;SDS011;4734;52.778;6.798;2022-11-24T06:22:31;12.43;;;3.40;;
9388;SDS011;4734;52.778;6.798;2022-11-24T06:25:17;12.47;;;3.40;;
9388;SDS011;4734;52.778;6.798;2022-11-24T06:28:03;12.23;;;3.13;;
9388;SDS011;4734;52.778;6.798;2022-11-24T06:30:49;13.27;;;3.47;;
9388;SDS011;4734;52.778;6.798;2022-11-24T06:33:35;9.77;;;3.10;;
9388;SDS011;4734;52.778;6.798;2022-11-24T06:36:22;13.10;;;3.30;;
9388;SDS011;4734;52.778;6.798;2022-11-24T06:39:10;9.87;;;2.83;;
9388;SDS011;4734;52.778;6.798;2022-11-24T06:41:55;12.10;;;3.17;;
9388;SDS011;4734;52.778;6.798;2022-11-24T06:44:41;10.43;;;3.47;;
9388;SDS011;4734;52.778;6.798;2022-11-24T06:47:27;14.00;;;3.40;;
9388;SDS011;4734;52.778;6.798;2022-11-24T06:50:13;11.73;;;3.20;;
9388;SDS011;4734;52.778;6.798;2022-11-24T06:52:59;14.67;;;3.60;;
9388;SDS011;4734;52.778;6.798;2022-11-24T06:55:46;16.57;;;4.07;;
9388;SDS011;4734;52.778;6.798;2022-11-24T06:58:32;10.17;;;3.47;;
9388;SDS011;4734;52.778;6.798;2022-11-24T07:01:18;14.63;;;4.50;;
9388;SDS011;4734;52.778;6.798;2022-11-24T07:04:05;10.60;;;4.00;;
9388;SDS011;4734;52.778;6.798;2022-11-24T07:06:51;15.27;;;3.83;;
9388;SDS011;4734;52.778;6.798;2022-11-24T07:09:37;13.07;;;3.90;;
9388;SDS011;4734;52.778;6.798;2022-11-24T07:12:25;10.50;;;3.93;;
9388;SDS011;4734;52.778;6.798;2022-11-24T07:15:12;13.53;;;3.80;;
9388;SDS011;4734;52.778;6.798;2022-11-24T07:17:58;13.27;;;4.03;;
9388;SDS011;4734;52.778;6.798;2022-11-24T07:20:44;11.80;;;3.90;;
9388;SDS011;4734;52.778;6.798;2022-11-24T07:23:30;15.83;;;4.03;;
9388;SDS011;4734;52.778;6.798;2022-11-24T07:26:16;11.40;;;4.10;;
9388;SDS011;4734;52.778;6.798;2022-11-24T07:29:11;22.87;;;5.23;;
9388;SDS011;4734;52.778;6.798;2022-11-24T07:31:58;17.83;;;4.83;;
9388;SDS011;4734;52.778;6.798;2022-11-24T07:34:45;15.17;;;4.07;;
9388;SDS011;4734;52.778;6.798;2022-11-24T07:37:31;11.93;;;3.80;;
9388;SDS011;4734;52.778;6.798;2022-11-24T07:40:17;16.43;;;4.30;;
9388;SDS011;4734;52.778;6.798;2022-11-24T07:43:03;15.07;;;4.20;;
9388;SDS011;4734;52.778;6.798;2022-11-24T07:45:51;15.63;;;3.77;;
9388;SDS011;4734;52.778;6.798;2022-11-24T07:48:37;19.47;;;4.90;;
9388;SDS011;4734;52.778;6.798;2022-11-24T07:51:23;13.00;;;4.50;;
9388;SDS011;4734;52.778;6.798;2022-11-24T07:54:09;14.20;;;3.93;;
9388;SDS011;4734;52.778;6.798;2022-11-24T07:56:55;16.13;;;4.33;;
9388;SDS011;4734;52.778;6.798;2022-11-24T07:59:40;12.73;;;3.90;;
9388;SDS011;4734;52.778;6.798;2022-11-24T08:02:28;12.47;;;4.40;;
9388;SDS011;4734;52.778;6.798;2022-11-24T08:05:13;20.60;;;4.57;;
9388;SDS011;4734;52.778;6.798;2022-11-24T08:07:59;16.80;;;4.17;;
9388;SDS011;4734;52.778;6.798;2022-11-24T08:10:45;15.90;;;4.10;;
9388;SDS011;4734;52.778;6.798;2022-11-24T08:13:31;14.60;;;3.73;;
9388;SDS011;4734;52.778;6.798;2022-11-24T08:16:18;15.93;;;4.20;;
9388;SDS011;4734;52.778;6.798;2022-11-24T08:19:05;12.00;;;3.80;;
9388;SDS011;4734;52.778;6.798;2022-11-24T08:21:51;15.00;;;3.83;;
9388;SDS011;4734;52.778;6.798;2022-11-24T08:24:37;9.57;;;4.17;;
9388;SDS011;4734;52.778;6.798;2022-11-24T08:27:28;12.53;;;3.93;;
9388;SDS011;4734;52.778;6.798;2022-11-24T08:30:14;13.77;;;4.30;;
9388;SDS011;4734;52.778;6.798;2022-11-24T08:33:01;15.77;;;4.17;;
9388;SDS011;4734;52.778;6.798;2022-11-24T08:35:48;12.67;;;3.40;;
9388;SDS011;4734;52.778;6.798;2022-11-24T08:38:34;10.73;;;3.50;;
9388;SDS011;4734;52.778;6.798;2022-11-24T08:41:20;13.47;;;3.43;;
9388;SDS011;4734;52.778;6.798;2022-11-24T08:44:06;11.10;;;3.57;;
9388;SDS011;4734;52.778;6.798;2022-11-24T08:46:53;11.13;;;3.53;;
9388;SDS011;4734;52.778;6.798;2022-11-24T08:49:39;10.83;;;3.80;;
9388;SDS011;4734;52.778;6.798;2022-11-24T08:52:27;8.90;;;3.77;;
9388;SDS011;4734;52.778;6.798;2022-11-24T08:55:12;9.43;;;3.67;;
9388;SDS011;4734;52.778;6.798;2022-11-24T08:57:58;9.20;;;3.40;;
9388;SDS011;4734;52.778;6.798;2022-11-24T09:00:44;12.80;;;3.83;;
9388;SDS011;4734;52.778;6.798;2022-11-24T09:03:30;13.23;;;3.70;;
9388;SDS011;4734;52.778;6.798;2022-11-24T09:06:16;11.63;;;3.60;;
9388;SDS011;4734;52.778;6.798;2022-11-24T09:09:08;13.97;;;4.43;;
9388;SDS011;4734;52.778;6.798;2022-11-24T09:11:54;10.87;;;4.33;;
9388;SDS011;4734;52.778;6.798;2022-11-24T09:14:40;9.93;;;3.60;;
9388;SDS011;4734;52.778;6.798;2022-11-24T09:17:29;9.90;;;3.90;;
9388;SDS011;4734;52.778;6.798;2022-11-24T09:20:18;10.60;;;3.40;;
9388;SDS011;4734;52.778;6.798;2022-11-24T09:23:04;11.10;;;4.10;;
9388;SDS011;4734;52.778;6.798;2022-11-24T09:25:51;8.93;;;3.63;;
9388;SDS011;4734;52.778;6.798;2022-11-24T09:28:37;6.33;;;3.27;;
9388;SDS011;4734;52.778;6.798;2022-11-24T09:31:24;13.47;;;3.03;;
9388;SDS011;4734;52.778;6.798;2022-11-24T09:34:13;12.07;;;3.40;;
9388;SDS011;4734;52.778;6.798;2022-11-24T09:37:00;7.67;;;3.50;;
9388;SDS011;4734;52.778;6.798;2022-11-24T09:39:46;7.63;;;2.73;;
9388;SDS011;4734;52.778;6.798;2022-11-24T09:42:37;6.37;;;3.00;;
9388;SDS011;4734;52.778;6.798;2022-11-24T09:45:30;9.37;;;3.23;;
9388;SDS011;4734;52.778;6.798;2022-11-24T09:48:27;6.80;;;3.10;;
9388;SDS011;4734;52.778;6.798;2022-11-24T09:51:17;7.03;;;3.13;;
9388;SDS011;4734;52.778;6.798;2022-11-24T09:54:10;7.77;;;3.20;;
9388;SDS011;4734;52.778;6.798;2022-11-24T09:57:00;4.57;;;2.80;;
9388;SDS011;4734;52.778;6.798;2022-11-24T09:59:51;7.87;;;3.30;;
9388;SDS011;4734;52.778;6.798;2022-11-24T10:02:43;7.40;;;2.83;;
9388;SDS011;4734;52.778;6.798;2022-11-24T10:05:32;5.73;;;2.97;;
9388;SDS011;4734;52.778;6.798;2022-11-24T10:08:22;9.17;;;3.30;;
9388;SDS011;4734;52.778;6.798;2022-11-24T10:11:22;7.80;;;3.70;;
9388;SDS011;4734;52.778;6.798;2022-11-24T10:14:25;7.20;;;2.97;;
9388;SDS011;4734;52.778;6.798;2022-11-24T10:17:41;5.73;;;3.27;;
9388;SDS011;4734;52.778;6.798;2022-11-24T10:20:38;9.50;;;3.50;;
9388;SDS011;4734;52.778;6.798;2022-11-24T10:23:40;6.33;;;3.90;;
9388;SDS011;4734;52.778;6.798;2022-11-24T10:26:37;5.43;;;3.87;;
9388;SDS011;4734;52.778;6.798;2022-11-24T10:29:25;7.13;;;4.23;;
9388;SDS011;4734;52.778;6.798;2022-11-24T10:32:18;9.63;;;4.20;;
9388;SDS011;4734;52.778;6.798;2022-11-24T10:35:12;4.30;;;3.53;;
9388;SDS011;4734;52.778;6.798;2022-11-24T10:38:05;5.83;;;3.63;;
9388;SDS011;4734;52.778;6.798;2022-11-24T10:41:00;5.03;;;3.72;;
9388;SDS011;4734;52.778;6.798;2022-11-24T10:43:51;6.95;;;4.30;;
9388;SDS011;4734;52.778;6.798;2022-11-24T10:46:41;5.93;;;3.97;;
9388;SDS011;4734;52.778;6.798;2022-11-24T10:49:29;8.07;;;4.10;;
9388;SDS011;4734;52.778;6.798;2022-11-24T10:52:18;5.63;;;4.20;;
9388;SDS011;4734;52.778;6.798;2022-11-24T10:55:06;5.47;;;4.97;;
9388;SDS011;4734;52.778;6.798;2022-11-24T10:57:53;4.93;;;4.28;;
9388;SDS011;4734;52.778;6.798;2022-11-24T11:00:39;5.43;;;4.20;;
9388;SDS011;4734;52.778;6.798;2022-11-24T11:03:26;6.05;;;4.38;;
9388;SDS011;4734;52.778;6.798;2022-11-24T11:06:19;7.37;;;4.63;;
9388;SDS011;4734;52.778;6.798;2022-11-24T11:09:18;4.60;;;4.13;;
9388;SDS011;4734;52.778;6.798;2022-11-24T11:12:10;9.18;;;4.75;;
9388;SDS011;4734;52.778;6.798;2022-11-24T11:18:13;6.93;;;4.68;;
9388;SDS011;4734;52.778;6.798;2022-11-24T11:21:01;6.87;;;4.90;;
9388;SDS011;4734;52.778;6.798;2022-11-24T11:23:50;16.20;;;4.83;;
9388;SDS011;4734;52.778;6.798;2022-11-24T11:26:39;7.82;;;5.15;;
9388;SDS011;4734;52.778;6.798;2022-11-24T11:29:27;7.20;;;5.10;;
9388;SDS011;4734;52.778;6.798;2022-11-24T11:32:15;9.88;;;4.85;;
9388;SDS011;4734;52.778;6.798;2022-11-24T11:35:03;9.15;;;4.78;;
9388;SDS011;4734;52.778;6.798;2022-11-24T11:37:50;6.50;;;4.87;;
9388;SDS011;4734;52.778;6.798;2022-11-24T11:40:37;7.45;;;4.90;;
9388;SDS011;4734;52.778;6.798;2022-11-24T11:43:29;5.50;;;4.25;;
9388;SDS011;4734;52.778;6.798;2022-11-24T11:46:18;9.75;;;5.03;;
9388;SDS011;4734;52.778;6.798;2022-11-24T11:49:07;8.38;;;5.25;;
9388;SDS011;4734;52.778;6.798;2022-11-24T11:52:00;4.93;;;4.32;;
9388;SDS011;4734;52.778;6.798;2022-11-24T11:55:14;5.28;;;4.35;;
9388;SDS011;4734;52.778;6.798;2022-11-24T11:58:17;7.72;;;5.45;;
9388;SDS011;4734;52.778;6.798;2022-11-24T12:01:24;4.90;;;4.20;;
9388;SDS011;4734;52.778;6.798;2022-11-24T12:04:24;8.10;;;5.00;;
9388;SDS011;4734;52.778;6.798;2022-11-24T12:07:28;9.88;;;5.53;;
9388;SDS011;4734;52.778;6.798;2022-11-24T12:10:33;9.40;;;5.00;;
9388;SDS011;4734;52.778;6.798;2022-11-24T12:13:35;9.98;;;5.05;;
9388;SDS011;4734;52.778;6.798;2022-11-24T12:16:38;8.57;;;5.35;;
9388;SDS011;4734;52.778;6.798;2022-11-24T12:19:35;12.32;;;4.90;;
9388;SDS011;4734;52.778;6.798;2022-11-24T12:22:35;10.55;;;5.40;;
9388;SDS011;4734;52.778;6.798;2022-11-24T12:25:27;12.27;;;5.70;;
9388;SDS011;4734;52.778;6.798;2022-11-24T12:28:22;10.10;;;4.95;;
9388;SDS011;4734;52.778;6.798;2022-11-24T12:31:20;7.15;;;4.72;;
9388;SDS011;4734;52.778;6.798;2022-11-24T12:34:18;10.90;;;4.95;;
9388;SDS011;4734;52.778;6.798;2022-11-24T12:37:22;9.60;;;5.03;;
9388;SDS011;4734;52.778;6.798;2022-11-24T12:40:22;11.60;;;5.40;;
9388;SDS011;4734;52.778;6.798;2022-11-24T12:43:21;14.82;;;5.03;;
9388;SDS011;4734;52.778;6.798;2022-11-24T12:46:15;9.93;;;4.65;;
9388;SDS011;4734;52.778;6.798;2022-11-24T12:49:13;9.70;;;4.70;;
9388;SDS011;4734;52.778;6.798;2022-11-24T12:52:16;10.23;;;5.15;;
9388;SDS011;4734;52.778;6.798;2022-11-24T12:55:11;7.85;;;4.50;;
9388;SDS011;4734;52.778;6.798;2022-11-24T12:58:02;9.48;;;5.03;;
9388;SDS011;4734;52.778;6.798;2022-11-24T13:00:59;8.45;;;4.55;;
9388;SDS011;4734;52.778;6.798;2022-11-24T13:03:58;10.25;;;4.40;;
9388;SDS011;4734;52.778;6.798;2022-11-24T13:06:52;9.18;;;4.47;;
9388;SDS011;4734;52.778;6.798;2022-11-24T13:13:01;8.65;;;4.07;;
9388;SDS011;4734;52.778;6.798;2022-11-24T13:16:01;8.00;;;4.35;;
9388;SDS011;4734;52.778;6.798;2022-11-24T13:18:58;9.18;;;4.35;;
9388;SDS011;4734;52.778;6.798;2022-11-24T13:21:58;12.73;;;4.65;;
9388;SDS011;4734;52.778;6.798;2022-11-24T13:24:46;8.18;;;4.03;;
9388;SDS011;4734;52.778;6.798;2022-11-24T13:27:56;9.90;;;4.45;;
9388;SDS011;4734;52.778;6.798;2022-11-24T13:30:53;11.65;;;4.45;;
9388;SDS011;4734;52.778;6.798;2022-11-24T13:33:53;15.30;;;5.15;;
9388;SDS011;4734;52.778;6.798;2022-11-24T13:39:48;8.02;;;4.18;;
9388;SDS011;4734;52.778;6.798;2022-11-24T13:43:17;9.65;;;4.03;;
9388;SDS011;4734;52.778;6.798;2022-11-24T13:46:06;10.07;;;4.18;;
9388;SDS011;4734;52.778;6.798;2022-11-24T13:49:00;10.82;;;3.67;;
9388;SDS011;4734;52.778;6.798;2022-11-24T13:51:46;7.70;;;3.65;;
9388;SDS011;4734;52.778;6.798;2022-11-24T13:54:39;8.52;;;3.40;;
9388;SDS011;4734;52.778;6.798;2022-11-24T13:57:31;12.57;;;4.10;;
9388;SDS011;4734;52.778;6.798;2022-11-24T14:00:19;9.55;;;4.03;;
9388;SDS011;4734;52.778;6.798;2022-11-24T14:03:14;13.20;;;4.30;;
9388;SDS011;4734;52.778;6.798;2022-11-24T14:06:04;12.50;;;4.40;;
9388;SDS011;4734;52.778;6.798;2022-11-24T14:08:59;16.65;;;3.97;;
9388;SDS011;4734;52.778;6.798;2022-11-24T14:11:56;9.43;;;3.80;;
9388;SDS011;4734;52.778;6.798;2022-11-24T14:14:46;9.73;;;3.60;;
9388;SDS011;4734;52.778;6.798;2022-11-24T14:17:35;7.53;;;3.75;;
9388;SDS011;4734;52.778;6.798;2022-11-24T14:20:26;7.95;;;3.28;;
9388;SDS011;4734;52.778;6.798;2022-11-24T14:23:13;7.82;;;3.60;;
9388;SDS011;4734;52.778;6.798;2022-11-24T14:25:59;6.55;;;3.30;;
9388;SDS011;4734;52.778;6.798;2022-11-24T14:28:45;15.38;;;3.85;;
9388;SDS011;4734;52.778;6.798;2022-11-24T14:31:32;11.55;;;3.83;;
9388;SDS011;4734;52.778;6.798;2022-11-24T14:34:18;9.65;;;3.45;;
9388;SDS011;4734;52.778;6.798;2022-11-24T14:37:08;9.80;;;3.67;;
9388;SDS011;4734;52.778;6.798;2022-11-24T14:39:53;8.93;;;3.58;;
9388;SDS011;4734;52.778;6.798;2022-11-24T14:42:40;8.65;;;3.60;;
9388;SDS011;4734;52.778;6.798;2022-11-24T14:45:33;7.78;;;3.40;;
9388;SDS011;4734;52.778;6.798;2022-11-24T14:48:22;11.82;;;3.47;;
9388;SDS011;4734;52.778;6.798;2022-11-24T14:51:12;8.77;;;3.67;;
9388;SDS011;4734;52.778;6.798;2022-11-24T14:54:03;8.07;;;2.63;;
9388;SDS011;4734;52.778;6.798;2022-11-24T14:56:55;8.75;;;3.28;;
9388;SDS011;4734;52.778;6.798;2022-11-24T14:59:43;9.52;;;2.85;;
9388;SDS011;4734;52.778;6.798;2022-11-24T15:02:51;10.05;;;3.38;;
9388;SDS011;4734;52.778;6.798;2022-11-24T15:05:49;9.02;;;3.60;;
9388;SDS011;4734;52.778;6.798;2022-11-24T15:08:37;9.85;;;3.15;;
9388;SDS011;4734;52.778;6.798;2022-11-24T15:11:30;10.48;;;3.40;;
9388;SDS011;4734;52.778;6.798;2022-11-24T15:14:28;10.27;;;3.10;;
9388;SDS011;4734;52.778;6.798;2022-11-24T15:17:18;6.30;;;2.95;;
9388;SDS011;4734;52.778;6.798;2022-11-24T15:20:07;8.90;;;2.90;;
9388;SDS011;4734;52.778;6.798;2022-11-24T15:23:11;14.55;;;3.60;;
9388;SDS011;4734;52.778;6.798;2022-11-24T15:26:23;7.30;;;2.80;;
9388;SDS011;4734;52.778;6.798;2022-11-24T15:29:10;7.70;;;3.08;;
9388;SDS011;4734;52.778;6.798;2022-11-24T15:31:57;9.32;;;3.08;;
9388;SDS011;4734;52.778;6.798;2022-11-24T15:34:43;8.88;;;2.70;;
9388;SDS011;4734;52.778;6.798;2022-11-24T15:37:28;6.53;;;2.47;;
9388;SDS011;4734;52.778;6.798;2022-11-24T15:40:14;13.40;;;3.92;;
9388;SDS011;4734;52.778;6.798;2022-11-24T15:43:01;11.88;;;4.43;;
9388;SDS011;4734;52.778;6.798;2022-11-24T15:45:48;9.70;;;3.28;;
9388;SDS011;4734;52.778;6.798;2022-11-24T15:48:34;8.80;;;3.17;;
9388;SDS011;4734;52.778;6.798;2022-11-24T15:51:19;7.93;;;2.95;;
9388;SDS011;4734;52.778;6.798;2022-11-24T15:54:09;11.15;;;3.58;;
9388;SDS011;4734;52.778;6.798;2022-11-24T15:56:58;5.75;;;2.78;;
9388;SDS011;4734;52.778;6.798;2022-11-24T15:59:44;9.80;;;3.15;;
9388;SDS011;4734;52.778;6.798;2022-11-24T16:02:31;12.82;;;3.80;;
9388;SDS011;4734;52.778;6.798;2022-11-24T16:05:17;8.93;;;3.20;;
9388;SDS011;4734;52.778;6.798;2022-11-24T16:08:03;11.25;;;3.97;;
9388;SDS011;4734;52.778;6.798;2022-11-24T16:10:49;8.03;;;3.40;;
9388;SDS011;4734;52.778;6.798;2022-11-24T16:13:34;12.90;;;3.70;;
9388;SDS011;4734;52.778;6.798;2022-11-24T16:16:20;10.13;;;3.60;;
9388;SDS011;4734;52.778;6.798;2022-11-24T16:19:09;8.43;;;3.58;;
9388;SDS011;4734;52.778;6.798;2022-11-24T16:21:55;17.65;;;3.58;;
9388;SDS011;4734;52.778;6.798;2022-11-24T16:24:41;7.95;;;3.50;;
9388;SDS011;4734;52.778;6.798;2022-11-24T16:27:27;11.60;;;3.73;;
9388;SDS011;4734;52.778;6.798;2022-11-24T16:30:13;12.45;;;4.05;;
9388;SDS011;4734;52.778;6.798;2022-11-24T16:33:01;10.40;;;3.97;;
9388;SDS011;4734;52.778;6.798;2022-11-24T16:35:51;11.93;;;3.73;;
9388;SDS011;4734;52.778;6.798;2022-11-24T16:38:37;10.23;;;3.80;;
9388;SDS011;4734;52.778;6.798;2022-11-24T16:41:23;14.10;;;3.93;;
9388;SDS011;4734;52.778;6.798;2022-11-24T16:44:09;8.47;;;3.63;;
9388;SDS011;4734;52.778;6.798;2022-11-24T16:46:55;9.65;;;3.97;;
9388;SDS011;4734;52.778;6.798;2022-11-24T16:49:41;13.27;;;4.03;;
9388;SDS011;4734;52.778;6.798;2022-11-24T16:52:28;11.30;;;4.00;;
9388;SDS011;4734;52.778;6.798;2022-11-24T16:55:14;10.80;;;4.57;;
9388;SDS011;4734;52.778;6.798;2022-11-24T16:58:03;11.40;;;4.20;;
9388;SDS011;4734;52.778;6.798;2022-11-24T17:00:49;14.00;;;4.57;;
9388;SDS011;4734;52.778;6.798;2022-11-24T17:03:35;12.40;;;4.20;;
9388;SDS011;4734;52.778;6.798;2022-11-24T17:06:22;12.70;;;4.00;;
9388;SDS011;4734;52.778;6.798;2022-11-24T17:09:18;13.90;;;4.00;;
9388;SDS011;4734;52.778;6.798;2022-11-24T17:12:04;13.77;;;4.57;;
9388;SDS011;4734;52.778;6.798;2022-11-24T17:14:50;11.73;;;4.37;;
9388;SDS011;4734;52.778;6.798;2022-11-24T17:17:38;13.43;;;5.13;;
9388;SDS011;4734;52.778;6.798;2022-11-24T17:20:24;14.67;;;4.87;;
9388;SDS011;4734;52.778;6.798;2022-11-24T17:23:10;10.70;;;4.90;;
9388;SDS011;4734;52.778;6.798;2022-11-24T17:26:01;11.73;;;4.27;;
9388;SDS011;4734;52.778;6.798;2022-11-24T17:28:48;11.17;;;4.30;;